Time;durP1;ratioP1;P1;durP2;ratioP2;P2;SDS_P1;SDS_P2;PMS_P1;PMS_P2;Temp;Humidity;BMP_temperature;BMP_pressure;BME280_temperature;BME280_humidity;BME280_pressure;Samples;Min_cycle;Max_cycle;Signal;HPM_P1;HPM_P2
2022/10/02 00:01:34;;;;;;;18.63;3.80;;;;;;;;;;5016533;28;20480;-65
2022/10/02 00:04:01;;;;;;;21.45;3.50;;;;;;;;;;4996563;28;20107;-65
2022/10/02 00:06:32;;;;;;;21.88;3.50;;;;;;;;;;5054063;28;20124;-65
2022/10/02 00:09:01;;;;;;;16.25;3.58;;;;;;;;;;5035343;28;20045;-65
2022/10/02 00:11:42;;;;;;;13.52;3.45;;;;;;;;;;5053422;28;20550;-65
2022/10/02 00:14:09;;;;;;;21.00;3.15;;;;;;;;;;5054105;28;20045;-66
2022/10/02 00:16:39;;;;;;;18.17;4.00;;;;;;;;;;5035777;28;20523;-66
2022/10/02 00:19:05;;;;;;;15.18;3.40;;;;;;;;;;5035898;28;20140;-66
2022/10/02 00:21:50;;;;;;;21.92;3.55;;;;;;;;;;5054054;28;20045;-66
2022/10/02 00:24:23;;;;;;;14.82;3.20;;;;;;;;;;5053505;28;20044;-66
2022/10/02 00:26:49;;;;;;;11.45;3.10;;;;;;;;;;5019804;28;20042;-66
2022/10/02 00:29:23;;;;;;;14.82;3.10;;;;;;;;;;5033560;28;20037;-66
2022/10/02 00:31:52;;;;;;;15.68;3.25;;;;;;;;;;5015404;28;20041;-66
2022/10/02 00:34:25;;;;;;;9.90;3.17;;;;;;;;;;5033704;28;20171;-66
2022/10/02 00:36:51;;;;;;;11.75;2.65;;;;;;;;;;5033623;28;20048;-65
2022/10/02 00:39:23;;;;;;;15.10;2.72;;;;;;;;;;5015206;28;20045;-65
2022/10/02 00:42:08;;;;;;;15.60;3.03;;;;;;;;;;5033732;28;20186;-65
2022/10/02 00:44:38;;;;;;;12.57;3.13;;;;;;;;;;5015763;28;20065;-65
2022/10/02 00:47:11;;;;;;;10.18;2.35;;;;;;;;;;5033018;28;20052;-65
2022/10/02 00:49:53;;;;;;;14.65;2.60;;;;;;;;;;5015463;28;20045;-65
2022/10/02 00:52:31;;;;;;;8.90;2.42;;;;;;;;;;5033480;28;20128;-65
2022/10/02 00:55:03;;;;;;;12.70;2.10;;;;;;;;;;5033079;28;20149;-65
2022/10/02 00:57:36;;;;;;;13.63;2.35;;;;;;;;;;5033027;28;20087;-65
2022/10/02 01:00:10;;;;;;;10.02;2.58;;;;;;;;;;5015278;28;20437;-65
2022/10/02 01:02:45;;;;;;;12.32;1.98;;;;;;;;;;5014850;28;20476;-65
2022/10/02 01:05:12;;;;;;;9.95;2.13;;;;;;;;;;5026791;28;20045;-65
2022/10/02 01:07:41;;;;;;;11.73;2.20;;;;;;;;;;5052616;28;20432;-65
2022/10/02 01:10:11;;;;;;;7.38;1.90;;;;;;;;;;5033225;28;20057;-65
2022/10/02 01:12:38;;;;;;;9.75;1.98;;;;;;;;;;5035149;28;20051;-65
2022/10/02 01:15:11;;;;;;;9.50;2.00;;;;;;;;;;5053031;28;20474;-65
2022/10/02 01:17:37;;;;;;;14.45;2.50;;;;;;;;;;5034084;28;20076;-65
2022/10/02 01:20:05;;;;;;;12.88;1.95;;;;;;;;;;5052625;28;20110;-65
2022/10/02 01:22:43;;;;;;;11.70;2.00;;;;;;;;;;5052545;28;20045;-65
2022/10/02 01:25:09;;;;;;;11.95;1.85;;;;;;;;;;5031760;28;20056;-65
2022/10/02 01:27:35;;;;;;;6.18;2.00;;;;;;;;;;5014567;28;20049;-65
2022/10/02 01:30:04;;;;;;;9.13;2.17;;;;;;;;;;5014573;28;20055;-65
2022/10/02 01:32:31;;;;;;;8.50;1.88;;;;;;;;;;5014378;28;20034;-65
2022/10/02 01:34:58;;;;;;;5.30;1.75;;;;;;;;;;5014844;28;20037;-65
2022/10/02 01:37:27;;;;;;;9.05;2.20;;;;;;;;;;5014672;28;20396;-65
2022/10/02 01:39:53;;;;;;;13.32;2.13;;;;;;;;;;5032120;28;20042;-66
2022/10/02 01:42:20;;;;;;;11.48;2.42;;;;;;;;;;5014422;28;20462;-66
2022/10/02 01:44:47;;;;;;;7.82;1.73;;;;;;;;;;5014427;28;20042;-66
2022/10/02 01:47:26;;;;;;;13.32;1.98;;;;;;;;;;5031989;28;20044;-66
2022/10/02 01:50:00;;;;;;;11.60;2.30;;;;;;;;;;5014447;28;20049;-66
2022/10/02 01:52:46;;;;;;;7.55;2.03;;;;;;;;;;5032449;28;20038;-66
2022/10/02 01:55:14;;;;;;;8.02;2.00;;;;;;;;;;5032352;28;20433;-65
2022/10/02 01:58:01;;;;;;;14.15;2.47;;;;;;;;;;5031835;28;20041;-66
2022/10/02 02:00:30;;;;;;;15.27;2.88;;;;;;;;;;5031253;28;20041;-66
2022/10/02 02:03:05;;;;;;;12.18;2.35;;;;;;;;;;5032195;28;20523;-66
2022/10/02 02:05:34;;;;;;;13.52;2.53;;;;;;;;;;5046539;28;20041;-66
2022/10/02 02:08:09;;;;;;;12.18;2.50;;;;;;;;;;5033282;28;20098;-65
2022/10/02 02:10:46;;;;;;;12.02;3.03;;;;;;;;;;5051600;28;20049;-65
2022/10/02 02:13:20;;;;;;;15.25;3.83;;;;;;;;;;5051717;28;20037;-65
2022/10/02 02:15:53;;;;;;;13.25;3.05;;;;;;;;;;5051126;28;20387;-65
2022/10/02 02:18:27;;;;;;;12.02;2.83;;;;;;;;;;5033315;28;20603;-65
2022/10/02 02:20:55;;;;;;;15.98;2.75;;;;;;;;;;5033560;28;20049;-65
2022/10/02 02:23:24;;;;;;;22.02;3.13;;;;;;;;;;5051294;28;20063;-65
2022/10/02 02:25:53;;;;;;;15.23;3.03;;;;;;;;;;5025545;28;20103;-65
2022/10/02 02:28:20;;;;;;;17.70;3.55;;;;;;;;;;5031212;28;20122;-65
2022/10/02 02:30:48;;;;;;;13.23;3.42;;;;;;;;;;5030809;28;20034;-65
2022/10/02 02:33:21;;;;;;;15.38;3.58;;;;;;;;;;5013839;28;20132;-65
2022/10/02 02:35:50;;;;;;;12.32;2.92;;;;;;;;;;5031536;28;20042;-65
2022/10/02 02:38:26;;;;;;;16.77;3.60;;;;;;;;;;5012926;28;20046;-65
2022/10/02 02:40:55;;;;;;;19.58;3.50;;;;;;;;;;5013166;28;20057;-65
2022/10/02 02:43:26;;;;;;;17.17;3.17;;;;;;;;;;5013587;28;20657;-65
2022/10/02 02:46:03;;;;;;;13.93;2.92;;;;;;;;;;5031025;28;20045;-66
2022/10/02 02:48:49;;;;;;;17.00;3.03;;;;;;;;;;5029984;28;20490;-66
2022/10/02 02:51:17;;;;;;;13.85;3.25;;;;;;;;;;5029772;28;20045;-66
2022/10/02 02:53:51;;;;;;;19.48;3.63;;;;;;;;;;5030845;28;20087;-66
2022/10/02 02:56:18;;;;;;;14.15;3.08;;;;;;;;;;4996764;28;20172;-66
2022/10/02 02:58:47;;;;;;;19.38;3.85;;;;;;;;;;5013124;28;20132;-66
2022/10/02 03:01:14;;;;;;;18.13;3.60;;;;;;;;;;5012871;28;20045;-66
2022/10/02 03:03:40;;;;;;;12.27;3.38;;;;;;;;;;5031264;28;20095;-65
2022/10/02 03:06:10;;;;;;;12.10;3.17;;;;;;;;;;5050291;28;20048;-65
2022/10/02 03:08:37;;;;;;;7.45;2.63;;;;;;;;;;5032572;28;20375;-65
2022/10/02 03:11:04;;;;;;;11.75;2.50;;;;;;;;;;5032321;28;20203;-65
2022/10/02 03:13:37;;;;;;;15.05;3.00;;;;;;;;;;5032647;28;20036;-65
2022/10/02 03:16:19;;;;;;;16.95;2.78;;;;;;;;;;5032296;28;20089;-66
2022/10/02 03:18:50;;;;;;;15.98;3.13;;;;;;;;;;5050630;28;20051;-66
2022/10/02 03:21:26;;;;;;;16.92;3.15;;;;;;;;;;5050985;28;20090;-66
2022/10/02 03:23:58;;;;;;;14.65;2.55;;;;;;;;;;5033061;28;20084;-66
2022/10/02 03:26:33;;;;;;;11.57;2.30;;;;;;;;;;5050595;28;20150;-66
2022/10/02 03:29:00;;;;;;;11.95;2.58;;;;;;;;;;5032415;28;20053;-65
2022/10/02 03:31:28;;;;;;;13.68;2.35;;;;;;;;;;5032365;28;20064;-65
2022/10/02 03:33:55;;;;;;;13.98;2.35;;;;;;;;;;5072317;28;20033;-65
2022/10/02 03:36:23;;;;;;;14.68;2.28;;;;;;;;;;5038906;28;20053;-65
2022/10/02 03:38:50;;;;;;;15.40;2.38;;;;;;;;;;5039395;28;20091;-65
2022/10/02 03:41:16;;;;;;;13.63;2.47;;;;;;;;;;5057208;28;20041;-65
2022/10/02 03:43:42;;;;;;;14.18;2.35;;;;;;;;;;5038844;28;20048;-65
2022/10/02 03:46:08;;;;;;;12.77;2.38;;;;;;;;;;5056675;28;20047;-65
2022/10/02 03:48:34;;;;;;;11.80;1.95;;;;;;;;;;5038694;28;20329;-66
2022/10/02 03:51:00;;;;;;;15.02;2.55;;;;;;;;;;5038636;28;20045;-66
2022/10/02 03:53:30;;;;;;;9.00;2.25;;;;;;;;;;5056983;28;20123;-65
2022/10/02 03:56:11;;;;;;;11.73;2.20;;;;;;;;;;5057039;28;20765;-65
2022/10/02 03:58:40;;;;;;;12.70;1.90;;;;;;;;;;5056597;28;20475;-66
2022/10/02 04:01:18;;;;;;;6.90;1.70;;;;;;;;;;5056622;28;20045;-65
2022/10/02 04:03:52;;;;;;;11.18;2.15;;;;;;;;;;5038836;28;20041;-65
2022/10/02 04:06:21;;;;;;;12.82;2.53;;;;;;;;;;5034967;28;20053;-65
2022/10/02 04:08:50;;;;;;;7.15;2.13;;;;;;;;;;5036654;28;20038;-65
2022/10/02 04:11:16;;;;;;;13.77;2.15;;;;;;;;;;5035370;28;20796;-65
2022/10/02 04:13:57;;;;;;;9.95;2.33;;;;;;;;;;5036671;28;20116;-65
2022/10/02 04:16:31;;;;;;;10.10;1.98;;;;;;;;;;5035833;28;20510;-65
2022/10/02 04:19:14;;;;;;;11.02;1.73;;;;;;;;;;5035597;28;20130;-65
2022/10/02 04:21:55;;;;;;;10.98;1.98;;;;;;;;;;5035374;28;20049;-65
2022/10/02 04:24:25;;;;;;;11.70;2.00;;;;;;;;;;5018770;28;20045;-65
2022/10/02 04:26:59;;;;;;;17.98;2.20;;;;;;;;;;5053040;28;20154;-65
2022/10/02 04:29:28;;;;;;;11.88;2.10;;;;;;;;;;5056378;28;20079;-65
2022/10/02 04:31:59;;;;;;;13.60;2.08;;;;;;;;;;5056398;28;20153;-65
2022/10/02 04:34:27;;;;;;;13.23;2.30;;;;;;;;;;5038801;28;20044;-66
2022/10/02 04:36:56;;;;;;;10.68;2.13;;;;;;;;;;5056310;28;20467;-66
2022/10/02 04:39:36;;;;;;;13.30;2.28;;;;;;;;;;5056775;28;20124;-66
2022/10/02 04:42:05;;;;;;;12.85;2.30;;;;;;;;;;5038688;28;20594;-66
2022/10/02 04:44:58;;;;;;;10.73;2.13;;;;;;;;;;5035255;28;20124;-66
2022/10/02 04:47:43;;;;;;;9.82;2.30;;;;;;;;;;5035317;28;20072;-66
2022/10/02 04:50:18;;;;;;;12.73;2.15;;;;;;;;;;5052916;28;20048;-66
2022/10/02 04:52:56;;;;;;;13.75;2.28;;;;;;;;;;5053533;28;20036;-66
2022/10/02 04:55:34;;;;;;;12.18;2.60;;;;;;;;;;5053447;28;20401;-65
2022/10/02 04:58:00;;;;;;;10.15;2.22;;;;;;;;;;5034587;28;20622;-66
2022/10/02 05:00:30;;;;;;;13.00;2.58;;;;;;;;;;5053273;28;20037;-66
2022/10/02 05:03:02;;;;;;;13.85;2.42;;;;;;;;;;5052909;28;20094;-65
2022/10/02 05:05:28;;;;;;;13.13;2.55;;;;;;;;;;5052399;28;20048;-65
2022/10/02 05:07:57;;;;;;;14.00;2.50;;;;;;;;;;5052903;28;20045;-65
2022/10/02 05:10:26;;;;;;;13.02;3.28;;;;;;;;;;5034755;28;20057;-65
2022/10/02 05:12:58;;;;;;;12.40;2.25;;;;;;;;;;5052615;28;20045;-65
2022/10/02 05:15:24;;;;;;;;;;;;;;;;;;5035319;28;20177;-65
2022/10/02 05:17:59;;;;;;;8.52;2.13;;;;;;;;;;5034576;28;19924;-65
2022/10/02 05:20:48;;;;;;;11.70;2.25;;;;;;;;;;5034327;28;20102;-65
2022/10/02 05:23:22;;;;;;;12.20;2.42;;;;;;;;;;5051937;28;20041;-65
2022/10/02 05:26:07;;;;;;;12.18;2.45;;;;;;;;;;5033238;28;20111;-65
2022/10/02 05:28:42;;;;;;;10.73;2.42;;;;;;;;;;5050850;28;20088;-65
2022/10/02 05:31:14;;;;;;;13.48;2.95;;;;;;;;;;5051395;28;20032;-65
2022/10/02 05:34:03;;;;;;;15.52;2.10;;;;;;;;;;5051219;28;20055;-65
2022/10/02 05:36:35;;;;;;;9.43;2.55;;;;;;;;;;5051007;28;20041;-65
2022/10/02 05:39:06;;;;;;;17.15;2.75;;;;;;;;;;5050998;28;20077;-65
2022/10/02 05:41:48;;;;;;;18.08;3.63;;;;;;;;;;5032983;28;20036;-65
2022/10/02 05:44:23;;;;;;;8.77;2.42;;;;;;;;;;5050655;28;20041;-65
2022/10/02 05:46:52;;;;;;;17.63;2.97;;;;;;;;;;5051040;28;20051;-65
2022/10/02 05:49:20;;;;;;;16.90;2.70;;;;;;;;;;5032938;28;20028;-65
2022/10/02 05:51:50;;;;;;;15.40;2.60;;;;;;;;;;5050481;28;20095;-65
2022/10/02 05:54:22;;;;;;;12.20;2.72;;;;;;;;;;5032825;28;20047;-65
2022/10/02 05:56:58;;;;;;;13.40;2.70;;;;;;;;;;5050072;28;20083;-65
2022/10/02 05:59:27;;;;;;;12.93;3.05;;;;;;;;;;5050389;28;20087;-65
2022/10/02 06:01:55;;;;;;;16.08;3.40;;;;;;;;;;5032773;28;20099;-65
2022/10/02 06:04:30;;;;;;;14.68;2.55;;;;;;;;;;5050328;28;20068;-65
2022/10/02 06:06:59;;;;;;;20.33;3.50;;;;;;;;;;5032487;28;20049;-65
2022/10/02 06:09:34;;;;;;;14.65;3.17;;;;;;;;;;5050716;28;20079;-65
2022/10/02 06:12:15;;;;;;;16.85;3.75;;;;;;;;;;5049985;28;20482;-65
2022/10/02 06:14:45;;;;;;;21.35;3.50;;;;;;;;;;5050487;28;20048;-65
2022/10/02 06:17:38;;;;;;;16.63;3.17;;;;;;;;;;5032516;28;20459;-65
2022/10/02 06:20:22;;;;;;;18.83;3.17;;;;;;;;;;5028159;28;20059;-65
2022/10/02 06:22:51;;;;;;;16.90;2.95;;;;;;;;;;5050551;28;20526;-65
2022/10/02 06:25:27;;;;;;;16.27;3.03;;;;;;;;;;5050641;28;20041;-66
2022/10/02 06:27:53;;;;;;;17.88;3.30;;;;;;;;;;5031367;28;20119;-66
2022/10/02 06:30:20;;;;;;;15.00;3.47;;;;;;;;;;5032074;28;20041;-66
2022/10/02 06:32:47;;;;;;;15.07;3.47;;;;;;;;;;5032216;28;20045;-66
2022/10/02 06:35:14;;;;;;;23.00;3.17;;;;;;;;;;5031898;28;20055;-66
2022/10/02 06:38:00;;;;;;;19.45;3.67;;;;;;;;;;5031947;28;20052;-66
2022/10/02 06:40:32;;;;;;;13.48;2.75;;;;;;;;;;5032182;28;20057;-66
2022/10/02 06:43:04;;;;;;;17.85;2.75;;;;;;;;;;5031709;28;20053;-66
2022/10/02 06:45:34;;;;;;;19.75;3.00;;;;;;;;;;5031752;28;20474;-66
2022/10/02 06:48:19;;;;;;;17.20;3.42;;;;;;;;;;5031720;28;20040;-66
2022/10/02 06:50:57;;;;;;;21.38;3.72;;;;;;;;;;5049211;28;20037;-66
2022/10/02 06:53:46;;;;;;;16.42;2.97;;;;;;;;;;5031605;28;20039;-66
2022/10/02 06:56:12;;;;;;;16.30;3.70;;;;;;;;;;5031481;28;20037;-66
2022/10/02 06:58:38;;;;;;;14.32;2.97;;;;;;;;;;5049733;28;20043;-66
2022/10/02 07:01:07;;;;;;;23.40;3.25;;;;;;;;;;5049636;28;20076;-66
2022/10/02 07:03:53;;;;;;;18.08;3.05;;;;;;;;;;5031152;28;20128;-66
2022/10/02 07:06:23;;;;;;;18.63;3.22;;;;;;;;;;5018689;28;20049;-66
2022/10/02 07:08:52;;;;;;;15.15;2.67;;;;;;;;;;5029188;28;20077;-65
2022/10/02 07:11:51;;;;;;;16.63;2.70;;;;;;;;;;5011153;28;20131;-65
2022/10/02 07:14:20;;;;;;;19.30;3.08;;;;;;;;;;4985993;28;20533;-65
2022/10/02 07:16:54;;;;;;;13.52;3.08;;;;;;;;;;5011723;28;20045;-65
2022/10/02 07:19:42;;;;;;;15.00;3.10;;;;;;;;;;5029013;28;20052;-65
2022/10/02 07:22:08;;;;;;;12.85;2.88;;;;;;;;;;5029638;28;20038;-65
2022/10/02 07:24:40;;;;;;;16.00;2.63;;;;;;;;;;5029705;28;20048;-65
2022/10/02 07:27:16;;;;;;;15.48;3.13;;;;;;;;;;5029234;28;20216;-65
2022/10/02 07:29:45;;;;;;;19.95;3.00;;;;;;;;;;5031176;28;20439;-65
2022/10/02 07:32:21;;;;;;;17.92;2.70;;;;;;;;;;5049286;28;20476;-65
2022/10/02 07:35:15;;;;;;;17.83;2.63;;;;;;;;;;5031015;28;20041;-65
2022/10/02 07:37:50;;;;;;;18.42;3.15;;;;;;;;;;5031364;28;20049;-65
2022/10/02 07:40:33;;;;;;;12.55;2.60;;;;;;;;;;5031113;28;20099;-65
2022/10/02 07:42:59;;;;;;;20.02;2.78;;;;;;;;;;5031461;28;20346;-65
2022/10/02 07:45:48;;;;;;;16.08;2.63;;;;;;;;;;5031203;28;20128;-65
2022/10/02 07:48:14;;;;;;;13.85;2.72;;;;;;;;;;5010866;28;20049;-65
2022/10/02 07:50:49;;;;;;;18.65;3.15;;;;;;;;;;5030903;28;20574;-66
2022/10/02 07:53:16;;;;;;;17.92;3.40;;;;;;;;;;5030988;28;20053;-65
2022/10/02 07:55:44;;;;;;;15.20;2.35;;;;;;;;;;5048657;28;20087;-65
2022/10/02 07:58:10;;;;;;;18.55;2.63;;;;;;;;;;5030843;28;20041;-66
2022/10/02 08:00:43;;;;;;;13.57;2.80;;;;;;;;;;5048993;28;20483;-66
2022/10/02 08:03:15;;;;;;;20.80;3.10;;;;;;;;;;5048660;28;20044;-66
2022/10/02 08:05:48;;;;;;;32.72;9.68;;;;;;;;;;5030748;28;20056;-66
2022/10/02 08:08:30;;;;;;;27.00;9.13;;;;;;;;;;5030789;28;20122;-66
2022/10/02 08:11:01;;;;;;;15.93;4.00;;;;;;;;;;5048174;28;20301;-66
2022/10/02 08:13:47;;;;;;;16.23;3.45;;;;;;;;;;5030845;28;20049;-66
2022/10/02 08:16:16;;;;;;;23.00;4.15;;;;;;;;;;5017480;28;20041;-66
2022/10/02 08:18:48;;;;;;;16.33;3.60;;;;;;;;;;5049638;28;20090;-66
2022/10/02 08:21:14;;;;;;;;;;;;;;;;;;5053187;28;20468;-66
2022/10/02 08:23:40;;;;;;;16.17;3.03;;;;;;;;;;5034721;28;20390;-66
2022/10/02 08:26:09;;;;;;;18.67;2.95;;;;;;;;;;5051782;28;20064;-66
2022/10/02 08:28:37;;;;;;;12.85;2.88;;;;;;;;;;5034339;28;20094;-66
2022/10/02 08:31:08;;;;;;;16.08;2.75;;;;;;;;;;5034635;28;20068;-66
2022/10/02 08:33:34;;;;;;;15.07;2.87;;;;;;;;;;5052283;28;20049;-66
2022/10/02 08:36:03;;;;;;;14.18;2.88;;;;;;;;;;5052419;28;20120;-66
2022/10/02 08:38:36;;;;;;;12.55;2.38;;;;;;;;;;5052341;28;20142;-66
2022/10/02 08:41:11;;;;;;;12.90;2.00;;;;;;;;;;5051620;28;20048;-66
2022/10/02 08:43:58;;;;;;;16.35;2.58;;;;;;;;;;5034245;28;20504;-66
2022/10/02 08:46:49;;;;;;;14.80;2.30;;;;;;;;;;5034092;28;20145;-66
2022/10/02 08:49:21;;;;;;;14.43;2.13;;;;;;;;;;5033692;28;20083;-66
2022/10/02 08:52:02;;;;;;;11.65;2.72;;;;;;;;;;5034290;28;20386;-66
2022/10/02 08:54:31;;;;;;;19.05;2.88;;;;;;;;;;5051421;28;20048;-66
2022/10/02 08:57:00;;;;;;;12.90;2.30;;;;;;;;;;5034010;28;20156;-66
2022/10/02 08:59:41;;;;;;;17.25;2.67;;;;;;;;;;5034246;28;20041;-66
2022/10/02 09:02:08;;;;;;;16.25;2.28;;;;;;;;;;5033640;28;20553;-66
2022/10/02 09:04:37;;;;;;;17.48;2.25;;;;;;;;;;5052221;28;20041;-66
2022/10/02 09:07:12;;;;;;;16.25;2.75;;;;;;;;;;5051517;28;20045;-66
2022/10/02 09:09:57;;;;;;;15.68;2.30;;;;;;;;;;5051020;28;20048;-66
2022/10/02 09:12:26;;;;;;;9.50;2.47;;;;;;;;;;5051557;28;20171;-66
2022/10/02 09:15:11;;;;;;;11.48;2.85;;;;;;;;;;5051742;28;20037;-66
2022/10/02 09:17:46;;;;;;;24.30;2.53;;;;;;;;;;5033273;28;20471;-66
2022/10/02 09:20:27;;;;;;;18.90;2.88;;;;;;;;;;5051443;28;20041;-66
2022/10/02 09:22:59;;;;;;;18.58;3.03;;;;;;;;;;5033392;28;20095;-66
2022/10/02 09:25:36;;;;;;;18.58;2.40;;;;;;;;;;5032788;28;20114;-66
2022/10/02 09:28:21;;;;;;;17.23;3.10;;;;;;;;;;5051237;28;20363;-66
2022/10/02 09:31:07;;;;;;;18.80;2.72;;;;;;;;;;5032471;28;20406;-66
2022/10/02 09:33:33;;;;;;;14.40;1.98;;;;;;;;;;5032912;28;20115;-66
2022/10/02 09:36:22;;;;;;;17.63;2.38;;;;;;;;;;5033449;28;20453;-66
2022/10/02 09:39:03;;;;;;;12.13;2.85;;;;;;;;;;5032606;28;20048;-66
2022/10/02 09:41:29;;;;;;;13.25;2.63;;;;;;;;;;5033091;28;20410;-66
2022/10/02 09:44:11;;;;;;;11.15;2.30;;;;;;;;;;5051353;28;20128;-66
2022/10/02 09:46:56;;;;;;;15.38;2.67;;;;;;;;;;5032886;28;20138;-66
2022/10/02 09:49:41;;;;;;;11.27;2.58;;;;;;;;;;5033190;28;20056;-66
2022/10/02 09:52:16;;;;;;;14.50;2.38;;;;;;;;;;5050951;28;20453;-65
2022/10/02 09:54:42;;;;;;;10.52;2.33;;;;;;;;;;5050425;28;20037;-66
2022/10/02 09:57:34;;;;;;;18.05;2.88;;;;;;;;;;5032673;28;20558;-66
2022/10/02 10:00:27;;;;;;;10.32;2.40;;;;;;;;;;5003094;28;20053;-66
2022/10/02 10:03:14;;;;;;;16.20;3.20;;;;;;;;;;5019635;28;20399;-66
2022/10/02 10:05:49;;;;;;;14.70;2.00;;;;;;;;;;5050731;28;20045;-66
2022/10/02 10:08:33;;;;;;;12.80;2.38;;;;;;;;;;5050619;28;20141;-66
2022/10/02 10:11:18;;;;;;;10.43;2.33;;;;;;;;;;5050084;28;20088;-66
2022/10/02 10:13:54;;;;;;;11.30;1.85;;;;;;;;;;5050519;28;20057;-66
2022/10/02 10:16:20;;;;;;;15.30;2.10;;;;;;;;;;5050229;28;20116;-66
2022/10/02 10:18:46;;;;;;;14.23;2.28;;;;;;;;;;5050294;28;20048;-66
2022/10/02 10:21:31;;;;;;;14.93;2.13;;;;;;;;;;5032292;28;20045;-66
2022/10/02 10:23:59;;;;;;;10.73;2.10;;;;;;;;;;5049950;28;20045;-66
2022/10/02 10:26:34;;;;;;;12.18;2.00;;;;;;;;;;5032022;28;20057;-66
2022/10/02 10:29:03;;;;;;;11.93;2.53;;;;;;;;;;5032387;28;20068;-66
2022/10/02 10:31:35;;;;;;;14.80;2.25;;;;;;;;;;5049544;28;20047;-66
2022/10/02 10:34:01;;;;;;;;;;;;;;;;;;5050753;28;20041;-66
2022/10/02 10:39:15;;;;;;;9.98;1.50;;;;;;;;;;5031623;28;20060;-66
2022/10/02 10:41:44;;;;;;;10.57;1.50;;;;;;;;;;5049487;28;20091;-66
2022/10/02 10:44:20;;;;;;;10.68;1.92;;;;;;;;;;5031794;28;20041;-66
2022/10/02 10:46:57;;;;;;;14.90;1.52;;;;;;;;;;5031408;28;20059;-66
2022/10/02 10:49:40;;;;;;;12.40;2.10;;;;;;;;;;5031848;28;20498;-66
2022/10/02 10:52:21;;;;;;;12.93;2.10;;;;;;;;;;5049732;28;20467;-66
2022/10/02 10:54:55;;;;;;;12.30;2.25;;;;;;;;;;5049518;28;20060;-66
2022/10/02 10:57:40;;;;;;;11.20;2.00;;;;;;;;;;5031971;28;20047;-66
2022/10/02 11:00:21;;;;;;;12.68;2.33;;;;;;;;;;5049790;28;20056;-66
2022/10/02 11:02:56;;;;;;;10.55;1.77;;;;;;;;;;5049908;28;20451;-66
2022/10/02 11:05:41;;;;;;;12.05;1.70;;;;;;;;;;5031847;28;20045;-66
2022/10/02 11:08:10;;;;;;;10.55;1.95;;;;;;;;;;5048767;28;20048;-66
2022/10/02 11:10:56;;;;;;;14.18;2.00;;;;;;;;;;5031363;28;20402;-66
2022/10/02 11:13:44;;;;;;;5.05;2.05;;;;;;;;;;5017904;28;20410;-66
2022/10/02 11:16:28;;;;;;;8.73;1.80;;;;;;;;;;5049004;28;20045;-66
2022/10/02 11:19:15;;;;;;;9.13;2.08;;;;;;;;;;5031221;28;20371;-66
2022/10/02 11:21:56;;;;;;;15.35;2.60;;;;;;;;;;5031568;28;20124;-66
2022/10/02 11:24:25;;;;;;;16.15;2.70;;;;;;;;;;5030838;28;20087;-65
2022/10/02 11:26:54;;;;;;;15.40;2.58;;;;;;;;;;5048959;28;20141;-65
2022/10/02 11:29:38;;;;;;;19.02;3.90;;;;;;;;;;5048957;28;20037;-65
2022/10/02 11:32:13;;;;;;;16.20;2.60;;;;;;;;;;5030819;28;20095;-65
2022/10/02 11:34:56;;;;;;;13.65;2.15;;;;;;;;;;5049291;28;20040;-66
2022/10/02 11:37:39;;;;;;;12.20;1.88;;;;;;;;;;5030959;28;20041;-66
2022/10/02 11:40:14;;;;;;;12.82;2.30;;;;;;;;;;5031202;28;20044;-66
2022/10/02 11:42:59;;;;;;;14.63;2.50;;;;;;;;;;5049001;28;20049;-66
2022/10/02 11:45:37;;;;;;;12.05;2.13;;;;;;;;;;5030709;28;20130;-66
2022/10/02 11:48:30;;;;;;;16.45;2.60;;;;;;;;;;5031004;28;20124;-66
2022/10/02 11:50:56;;;;;;;16.73;2.28;;;;;;;;;;5049076;28;20033;-66
2022/10/02 11:53:25;;;;;;;15.00;2.20;;;;;;;;;;5031280;28;20400;-66
2022/10/02 11:55:59;;;;;;;14.32;2.35;;;;;;;;;;5052988;28;20352;-66
2022/10/02 11:58:44;;;;;;;11.95;2.30;;;;;;;;;;5052800;28;20393;-66
2022/10/02 12:01:16;;;;;;;12.27;2.85;;;;;;;;;;5052365;28;20090;-66
2022/10/02 12:03:51;;;;;;;15.52;2.35;;;;;;;;;;5035013;28;20084;-66
2022/10/02 12:06:36;;;;;;;12.35;2.67;;;;;;;;;;5032708;28;20107;-66
2022/10/02 12:09:18;;;;;;;14.93;2.83;;;;;;;;;;5014417;28;20072;-66
2022/10/02 12:11:56;;;;;;;16.85;2.35;;;;;;;;;;5032999;28;20088;-66
2022/10/02 12:14:38;;;;;;;11.55;2.13;;;;;;;;;;5014698;28;20136;-66
2022/10/02 12:17:10;;;;;;;13.00;1.98;;;;;;;;;;5031764;28;20392;-66
2022/10/02 12:19:36;;;;;;;9.18;1.80;;;;;;;;;;5032781;28;20057;-66
2022/10/02 12:28:10;;;;;;;15.93;2.58;;;;;;;;;;5032417;28;20041;-66
2022/10/02 12:30:42;;;;;;;11.88;2.05;;;;;;;;;;5030801;28;20041;-66
2022/10/02 12:33:08;;;;;;;;;;;;;;;;;;5033167;28;20140;-66
2022/10/02 12:35:39;;;;;;;8.48;1.73;;;;;;;;;;5032591;28;20020;-66
2022/10/02 12:38:05;;;;;;;9.10;1.63;;;;;;;;;;5032238;28;20539;-66
2022/10/02 12:41:02;;;;;;;11.35;2.03;;;;;;;;;;5032508;28;20121;-66
2022/10/02 12:43:41;;;;;;;10.30;1.90;;;;;;;;;;5023505;28;20080;-66
2022/10/02 12:46:26;;;;;;;12.15;1.88;;;;;;;;;;5032235;28;20081;-66
2022/10/02 12:48:52;;;;;;;10.60;2.13;;;;;;;;;;5047593;28;20551;-66
2022/10/02 12:51:28;;;;;;;12.95;2.08;;;;;;;;;;5031485;28;20539;-66
2022/10/02 12:54:23;;;;;;;8.57;1.80;;;;;;;;;;5032292;28;20045;-66
2022/10/02 12:57:01;;;;;;;9.60;1.90;;;;;;;;;;4978992;28;20054;-66
2022/10/02 12:59:27;;;;;;;12.52;1.70;;;;;;;;;;5031287;28;20089;-66
2022/10/02 13:02:12;;;;;;;13.02;2.35;;;;;;;;;;5047161;28;20443;-66
2022/10/02 13:04:50;;;;;;;10.95;2.20;;;;;;;;;;5038454;28;20423;-66
2022/10/02 13:07:16;;;;;;;12.05;1.80;;;;;;;;;;5051392;28;20075;-66
2022/10/02 13:10:05;;;;;;;11.75;2.03;;;;;;;;;;5029505;28;20496;-66
2022/10/02 13:12:49;;;;;;;7.07;1.40;;;;;;;;;;5027723;28;20108;-66
2022/10/02 13:15:21;;;;;;;10.27;1.83;;;;;;;;;;5031521;28;20042;-66
2022/10/02 13:17:47;;;;;;;;;;;;;;;;;;5032099;28;20551;-66
2022/10/02 13:20:36;;;;;;;14.82;2.28;;;;;;;;;;5013564;28;19971;-66
2022/10/02 13:23:11;;;;;;;7.75;1.10;;;;;;;;;;5031402;28;20077;-66
2022/10/02 13:25:54;;;;;;;11.73;1.60;;;;;;;;;;5013865;28;20555;-66
2022/10/02 13:28:26;;;;;;;8.63;1.50;;;;;;;;;;5031075;28;20046;-66
2022/10/02 13:31:07;;;;;;;10.70;1.75;;;;;;;;;;5013278;28;20381;-66
2022/10/02 13:33:33;;;;;;;11.75;1.95;;;;;;;;;;5031602;28;20091;-66
2022/10/02 13:36:06;;;;;;;12.43;1.85;;;;;;;;;;5013296;28;20049;-66
2022/10/02 13:38:51;;;;;;;10.25;2.17;;;;;;;;;;5031028;28;20120;-66
2022/10/02 13:41:37;;;;;;;9.25;1.40;;;;;;;;;;5031292;28;20044;-66
2022/10/02 13:44:08;;;;;;;8.80;1.70;;;;;;;;;;4990178;28;20050;-66
2022/10/02 13:46:47;;;;;;;8.13;1.38;;;;;;;;;;5013335;28;20073;-66
2022/10/02 13:49:16;;;;;;;11.73;1.52;;;;;;;;;;5030817;28;20045;-66
2022/10/02 13:51:48;;;;;;;7.40;1.50;;;;;;;;;;5012852;28;20158;-66
2022/10/02 13:54:33;;;;;;;8.52;1.60;;;;;;;;;;5030995;28;20037;-66
2022/10/02 13:57:08;;;;;;;9.88;2.08;;;;;;;;;;5031070;28;20060;-66
2022/10/02 13:59:44;;;;;;;13.15;2.03;;;;;;;;;;5012462;28;20046;-66
2022/10/02 14:02:17;;;;;;;7.90;1.77;;;;;;;;;;5030929;28;20053;-66
2022/10/02 14:04:49;;;;;;;10.55;1.77;;;;;;;;;;5030829;28;20128;-66
2022/10/02 14:07:24;;;;;;;10.07;1.90;;;;;;;;;;5030357;28;20041;-66
2022/10/02 14:09:50;;;;;;;15.00;1.80;;;;;;;;;;5017696;28;20049;-66
2022/10/02 14:12:37;;;;;;;10.27;1.70;;;;;;;;;;5050591;28;20052;-66
2022/10/02 14:15:06;;;;;;;8.98;1.80;;;;;;;;;;5032679;28;20120;-66
2022/10/02 14:17:43;;;;;;;11.73;2.00;;;;;;;;;;5032145;28;20052;-66
2022/10/02 14:20:27;;;;;;;8.25;1.40;;;;;;;;;;5049858;28;20063;-66
2022/10/02 14:23:12;;;;;;;9.95;2.00;;;;;;;;;;5050557;28;20116;-66
2022/10/02 14:25:57;;;;;;;16.27;2.00;;;;;;;;;;5050465;28;20037;-66
2022/10/02 14:28:29;;;;;;;7.15;1.55;;;;;;;;;;5031673;28;20153;-66
2022/10/02 14:31:14;;;;;;;11.73;1.95;;;;;;;;;;5032328;28;20048;-66
2022/10/02 14:33:59;;;;;;;11.32;1.80;;;;;;;;;;5050307;28;20402;-66
2022/10/02 14:36:29;;;;;;;9.48;1.83;;;;;;;;;;5031990;28;20048;-66
2022/10/02 14:39:12;;;;;;;11.00;1.83;;;;;;;;;;5031895;28;20124;-66
2022/10/02 14:42:07;;;;;;;10.60;2.13;;;;;;;;;;5032230;28;20045;-66
2022/10/02 14:44:40;;;;;;;9.88;1.45;;;;;;;;;;5032428;28;20056;-66
2022/10/02 14:47:06;;;;;;;10.85;2.33;;;;;;;;;;5031703;28;20140;-66
2022/10/02 14:49:39;;;;;;;7.90;2.35;;;;;;;;;;5049416;28;20115;-66
2022/10/02 14:52:11;;;;;;;14.15;1.90;;;;;;;;;;5049641;28;20120;-66
2022/10/02 14:54:56;;;;;;;10.10;1.70;;;;;;;;;;5031666;28;20041;-66
2022/10/02 14:57:22;;;;;;;13.93;2.28;;;;;;;;;;5049445;28;20048;-66
2022/10/02 14:59:48;;;;;;;9.18;1.95;;;;;;;;;;5031410;28;20604;-66
2022/10/02 15:02:25;;;;;;;12.77;2.20;;;;;;;;;;5031630;28;20312;-66
2022/10/02 15:05:12;;;;;;;6.05;1.38;;;;;;;;;;5031133;28;20071;-66
2022/10/02 15:07:39;;;;;;;17.60;2.00;;;;;;;;;;5030976;28;20508;-66
2022/10/02 15:10:15;;;;;;;13.60;2.42;;;;;;;;;;5049377;28;20045;-66
2022/10/02 15:12:42;;;;;;;12.15;2.22;;;;;;;;;;5049136;28;20460;-66
2022/10/02 15:15:15;;;;;;;13.45;2.03;;;;;;;;;;5031534;28;20041;-66
2022/10/02 15:17:58;;;;;;;7.85;1.75;;;;;;;;;;5031138;28;20040;-66
2022/10/02 15:20:32;;;;;;;12.65;1.60;;;;;;;;;;5049234;28;20519;-66
2022/10/02 15:22:58;;;;;;;8.18;1.83;;;;;;;;;;5049494;28;20033;-66
2022/10/02 15:25:35;;;;;;;12.38;1.90;;;;;;;;;;5031271;28;20287;-66